createdAt,value
2019-03-30T00:01:23.621Z,24.20
2019-03-30T00:03:52.193Z,27.67
2019-03-30T00:06:20.434Z,26.60
2019-03-30T00:08:48.840Z,22.17
2019-03-30T00:11:17.124Z,25.00
2019-03-30T00:13:45.464Z,28.43
2019-03-30T00:16:13.700Z,24.20
2019-03-30T00:18:42.027Z,27.90
2019-03-30T00:21:10.342Z,23.70
2019-03-30T00:23:38.739Z,19.70
2019-03-30T00:26:07.032Z,22.57
2019-03-30T00:28:35.429Z,25.60
2019-03-30T00:31:03.711Z,27.90
2019-03-30T00:33:32.042Z,20.93
2019-03-30T00:36:00.423Z,19.70
2019-03-30T00:38:28.678Z,20.70
2019-03-30T00:40:56.969Z,25.47
2019-03-30T00:43:25.430Z,23.43
2019-03-30T00:45:53.840Z,18.40
2019-03-30T00:48:22.011Z,25.03
2019-03-30T00:50:50.402Z,22.20
2019-03-30T00:53:18.781Z,20.53
2019-03-30T00:55:47.226Z,26.73
2019-03-30T00:58:15.651Z,21.13
2019-03-30T01:00:44.996Z,20.10
2019-03-30T01:03:13.383Z,23.00
2019-03-30T01:05:41.711Z,22.20
2019-03-30T01:08:09.985Z,25.10
2019-03-30T01:10:38.460Z,20.87
2019-03-30T01:13:06.831Z,24.20
2019-03-30T01:15:35.203Z,18.70
2019-03-30T01:18:03.611Z,22.93
2019-03-30T01:20:31.991Z,24.60
2019-03-30T01:23:00.411Z,21.80
2019-03-30T01:25:28.806Z,22.10
2019-03-30T01:27:57.096Z,19.60
2019-03-30T01:30:25.498Z,22.27
2019-03-30T01:32:53.845Z,24.70
2019-03-30T01:35:22.304Z,21.90
2019-03-30T01:37:51.038Z,20.50
2019-03-30T01:40:19.518Z,26.00
2019-03-30T01:42:47.695Z,24.40
2019-03-30T01:45:16.068Z,19.67
2019-03-30T01:47:44.392Z,24.50
2019-03-30T01:50:17.681Z,18.27
2019-03-30T01:52:43.110Z,19.40
2019-03-30T01:55:11.433Z,18.60
2019-03-30T01:57:39.771Z,16.40
2019-03-30T02:00:09.319Z,19.77
2019-03-30T02:02:38.902Z,19.43
2019-03-30T02:05:07.306Z,22.17
2019-03-30T02:07:35.783Z,21.07
2019-03-30T02:10:04.643Z,20.70
2019-03-30T02:12:34.056Z,23.60
2019-03-30T02:15:02.351Z,23.57
2019-03-30T02:17:30.765Z,20.90
2019-03-30T02:20:00.403Z,22.50
2019-03-30T02:22:28.760Z,25.13
2019-03-30T02:24:57.143Z,22.07
2019-03-30T02:27:25.531Z,17.33
2019-03-30T02:29:54.730Z,19.63
2019-03-30T02:32:23.111Z,23.20
2019-03-30T02:34:51.545Z,24.07
2019-03-30T02:37:19.843Z,18.70
2019-03-30T02:39:48.253Z,23.63
2019-03-30T02:42:16.512Z,22.93
2019-03-30T02:44:44.913Z,20.80
2019-03-30T02:47:13.367Z,22.00
2019-03-30T02:49:41.722Z,21.97
2019-03-30T02:52:10.199Z,23.07
2019-03-30T02:54:38.583Z,25.07
2019-03-30T02:57:06.939Z,22.43
2019-03-30T02:59:35.103Z,22.60
2019-03-30T03:02:04.660Z,23.87
2019-03-30T03:04:33.087Z,20.33
2019-03-30T03:07:01.412Z,20.47
2019-03-30T03:09:29.813Z,22.90
2019-03-30T03:11:58.161Z,23.60
2019-03-30T03:14:26.430Z,21.67
2019-03-30T03:16:54.840Z,23.63
2019-03-30T03:19:23.132Z,23.70
2019-03-30T03:21:51.479Z,26.30
2019-03-30T03:24:19.768Z,25.13
2019-03-30T03:26:49.121Z,23.53
2019-03-30T03:29:17.553Z,25.47
2019-03-30T03:31:46.196Z,21.77
2019-03-30T03:34:14.769Z,26.70
2019-03-30T03:36:43.173Z,28.77
2019-03-30T03:39:11.476Z,21.60
2019-03-30T03:41:39.826Z,26.40
2019-03-30T03:44:08.090Z,26.87
2019-03-30T03:46:36.325Z,24.57
2019-03-30T03:49:04.824Z,31.27
2019-03-30T03:51:33.585Z,28.23
2019-03-30T03:54:02.059Z,25.97
2019-03-30T03:56:30.540Z,27.93
2019-03-30T03:58:59.260Z,29.63
2019-03-30T04:01:27.689Z,26.40
2019-03-30T04:03:57.181Z,30.57
2019-03-30T04:06:26.971Z,24.00
2019-03-30T04:08:56.757Z,26.73
2019-03-30T04:11:26.265Z,24.40
2019-03-30T04:13:56.476Z,26.87
2019-03-30T04:16:24.797Z,26.07
2019-03-30T04:18:53.139Z,32.00
2019-03-30T04:21:21.351Z,31.97
2019-03-30T04:23:53.944Z,29.23
2019-03-30T04:26:19.552Z,29.87
2019-03-30T04:28:47.932Z,29.97
2019-03-30T04:31:16.243Z,27.97
2019-03-30T04:33:44.635Z,24.13
2019-03-30T04:36:13.087Z,31.47
2019-03-30T04:38:41.380Z,26.77
2019-03-30T04:41:09.681Z,32.67
2019-03-30T04:43:37.935Z,25.60
2019-03-30T04:46:06.223Z,30.90
2019-03-30T04:48:34.682Z,33.87
2019-03-30T04:51:03.044Z,26.33
2019-03-30T04:53:31.436Z,30.60
2019-03-30T04:55:59.771Z,29.83
2019-03-30T04:58:28.065Z,26.33
2019-03-30T05:00:56.782Z,25.27
2019-03-30T05:03:25.199Z,28.17
2019-03-30T05:05:53.543Z,33.43
2019-03-30T05:08:21.979Z,37.53
2019-03-30T05:10:50.271Z,25.90
2019-03-30T05:13:18.676Z,32.87
2019-03-30T05:15:47.039Z,28.37
2019-03-30T05:18:15.371Z,30.53
2019-03-30T05:20:43.715Z,33.27
2019-03-30T05:23:12.054Z,34.37
2019-03-30T05:25:40.381Z,32.50
2019-03-30T05:28:08.648Z,37.60
2019-03-30T05:30:37.094Z,25.10
2019-03-30T05:33:06.418Z,34.00
2019-03-30T05:35:35.139Z,38.03
2019-03-30T05:38:03.512Z,27.83
2019-03-30T05:40:31.851Z,29.03
2019-03-30T05:43:00.263Z,37.60
2019-03-30T05:45:28.508Z,34.37
2019-03-30T05:47:57.033Z,32.27
2019-03-30T05:50:25.431Z,36.80
2019-03-30T05:52:53.823Z,31.40
2019-03-30T05:55:22.191Z,33.10
2019-03-30T05:57:50.464Z,34.23
2019-03-30T06:00:20.385Z,36.17
2019-03-30T06:02:48.959Z,42.47
2019-03-30T06:05:17.354Z,31.93
2019-03-30T06:07:45.851Z,27.40
2019-03-30T06:10:14.291Z,27.13
2019-03-30T06:12:42.678Z,29.53
2019-03-30T06:15:11.249Z,30.30
2019-03-30T06:17:39.763Z,43.30
2019-03-30T06:20:08.241Z,30.77
2019-03-30T06:22:40.417Z,31.50
2019-03-30T06:25:06.544Z,34.00
2019-03-30T06:27:34.832Z,36.03
2019-03-30T06:30:04.554Z,28.83
2019-03-30T06:32:32.871Z,35.43
2019-03-30T06:35:01.138Z,31.53
2019-03-30T06:37:29.552Z,30.17
2019-03-30T06:39:57.771Z,33.23
2019-03-30T06:42:25.999Z,36.47
2019-03-30T06:44:54.312Z,31.07
2019-03-30T06:47:22.602Z,36.20
2019-03-30T06:49:50.754Z,29.53
2019-03-30T06:52:19.048Z,30.30
2019-03-30T06:54:47.456Z,40.50
2019-03-30T06:57:15.721Z,35.53
2019-03-30T06:59:44.021Z,33.30
2019-03-30T07:02:12.229Z,34.23
2019-03-30T07:04:40.489Z,32.73
2019-03-30T07:07:09.463Z,33.73
2019-03-30T07:09:38.384Z,32.00
2019-03-30T07:12:07.459Z,31.60
2019-03-30T07:14:37.446Z,28.60
2019-03-30T07:17:07.230Z,31.10
2019-03-30T07:19:36.968Z,29.57
2019-03-30T07:22:05.396Z,32.93
2019-03-30T07:24:33.857Z,29.03
2019-03-30T07:27:02.058Z,35.20
2019-03-30T07:29:30.339Z,30.33
2019-03-30T07:31:58.663Z,31.33
2019-03-30T07:34:27.056Z,24.70
2019-03-30T07:36:55.660Z,30.23
2019-03-30T07:39:24.045Z,26.60
2019-03-30T07:41:52.186Z,30.23
2019-03-30T07:44:20.493Z,25.80
2019-03-30T07:46:48.963Z,22.60
2019-03-30T07:49:17.371Z,28.57
2019-03-30T07:51:45.593Z,27.33
2019-03-30T07:54:13.999Z,31.07
2019-03-30T07:56:42.582Z,30.83
2019-03-30T07:59:10.972Z,33.53
2019-03-30T08:01:39.399Z,32.57
2019-03-30T08:04:07.748Z,23.37
2019-03-30T08:06:37.062Z,26.27
2019-03-30T08:09:05.834Z,27.40
2019-03-30T08:11:34.189Z,18.47
2019-03-30T08:14:02.536Z,20.73
2019-03-30T08:16:30.831Z,20.17
2019-03-30T08:19:00.452Z,24.80
2019-03-30T08:21:29.863Z,22.40
2019-03-30T08:23:58.144Z,24.40
2019-03-30T08:26:26.511Z,26.40
2019-03-30T08:28:54.850Z,24.10
2019-03-30T08:31:23.179Z,21.00
2019-03-30T08:33:52.505Z,19.30
2019-03-30T08:36:20.921Z,19.20
2019-03-30T08:38:49.333Z,20.50
2019-03-30T08:41:17.752Z,22.47
2019-03-30T08:43:46.239Z,24.73
2019-03-30T08:48:57.389Z,29.23
2019-03-30T08:51:25.979Z,21.63
2019-03-30T08:53:55.190Z,24.00
2019-03-30T08:56:23.925Z,25.30
2019-03-30T08:58:52.459Z,21.27
2019-03-30T09:01:20.684Z,22.70
2019-03-30T09:03:48.903Z,24.30
2019-03-30T09:06:17.218Z,22.33
2019-03-30T09:08:45.526Z,19.90
2019-03-30T09:11:14.023Z,22.90
2019-03-30T09:13:42.519Z,24.10
2019-03-30T09:16:10.903Z,18.70
2019-03-30T09:18:39.280Z,25.27
2019-03-30T09:21:07.744Z,23.20
2019-03-30T09:23:36.133Z,26.67
2019-03-30T09:26:04.559Z,18.50
2019-03-30T09:28:32.896Z,22.63
2019-03-30T09:31:01.302Z,24.00
2019-03-30T09:33:29.672Z,28.23
2019-03-30T09:35:57.972Z,22.73
2019-03-30T09:38:26.451Z,22.73
2019-03-30T09:40:54.935Z,23.53
2019-03-30T09:43:23.388Z,25.70
2019-03-30T09:45:51.681Z,34.00
2019-03-30T09:48:20.081Z,27.37
2019-03-30T09:50:48.437Z,20.27
2019-03-30T09:53:17.384Z,24.93
2019-03-30T09:55:45.785Z,19.73
2019-03-30T09:58:14.142Z,21.87
2019-03-30T10:00:42.534Z,24.67
2019-03-30T10:03:11.339Z,26.00
2019-03-30T10:05:39.635Z,25.53
2019-03-30T10:08:07.867Z,23.67
2019-03-30T10:10:36.193Z,24.53
2019-03-30T10:13:04.587Z,26.20
2019-03-30T10:15:33.040Z,24.30
2019-03-30T10:18:01.384Z,23.20
2019-03-30T10:20:30.902Z,23.80
2019-03-30T10:23:00.154Z,27.60
2019-03-30T10:25:28.504Z,23.00
2019-03-30T10:27:56.903Z,22.10
2019-03-30T10:30:25.255Z,22.23
2019-03-30T10:32:53.631Z,29.77
2019-03-30T10:35:21.991Z,28.43
2019-03-30T10:37:50.489Z,24.60
2019-03-30T10:40:20.811Z,23.57
2019-03-30T10:42:48.825Z,28.53
2019-03-30T10:45:17.194Z,23.30
2019-03-30T10:47:45.470Z,19.67
2019-03-30T10:50:13.963Z,22.15
2019-03-30T10:52:42.224Z,27.40
2019-03-30T10:55:10.737Z,20.17
2019-03-30T10:57:39.161Z,16.90
2019-03-30T11:00:09.525Z,16.47
2019-03-30T11:02:38.823Z,20.90
2019-03-30T11:05:07.360Z,23.25
2019-03-30T11:07:35.708Z,20.33
2019-03-30T11:10:05.505Z,20.67
2019-03-30T11:12:33.800Z,22.80
2019-03-30T11:15:02.290Z,23.97
2019-03-30T11:17:30.688Z,18.77
2019-03-30T11:19:58.988Z,26.42
2019-03-30T11:22:27.320Z,21.40
2019-03-30T11:25:06.523Z,21.42
2019-03-30T11:27:25.748Z,21.42
2019-03-30T11:29:54.364Z,20.48
2019-03-30T11:32:22.598Z,17.07
2019-03-30T11:34:51.045Z,17.60
2019-03-30T11:37:19.403Z,25.60
2019-03-30T11:39:47.824Z,17.92
2019-03-30T11:42:16.237Z,24.55
2019-03-30T11:44:44.477Z,17.55
2019-03-30T11:47:12.849Z,19.02
2019-03-30T11:49:41.273Z,18.20
2019-03-30T11:52:09.691Z,19.82
2019-03-30T11:54:37.961Z,19.55
2019-03-30T11:57:06.223Z,13.85
2019-03-30T11:59:34.710Z,19.73
2019-03-30T12:02:03.254Z,18.73
2019-03-30T12:04:31.707Z,25.30
2019-03-30T12:06:59.998Z,20.45
2019-03-30T12:09:28.415Z,24.55
2019-03-30T12:11:56.799Z,21.25
2019-03-30T12:14:25.258Z,21.25
2019-03-30T12:16:53.748Z,20.85
2019-03-30T12:19:22.136Z,24.77
2019-03-30T12:21:50.419Z,22.95
2019-03-30T12:24:18.711Z,21.77
2019-03-30T12:26:47.012Z,17.23
2019-03-30T12:29:15.443Z,26.37
2019-03-30T12:31:43.715Z,23.30
2019-03-30T12:34:13.157Z,24.10
2019-03-30T12:36:41.710Z,25.48
2019-03-30T12:39:10.183Z,24.60
2019-03-30T12:41:38.699Z,21.25
2019-03-30T12:44:07.009Z,23.30
2019-03-30T12:46:35.435Z,23.60
2019-03-30T12:49:03.817Z,16.07
2019-03-30T12:51:32.074Z,20.50
2019-03-30T12:54:00.426Z,18.17
2019-03-30T12:56:28.825Z,23.57
2019-03-30T12:58:57.164Z,19.90
2019-03-30T13:01:25.720Z,25.80
2019-03-30T13:03:53.989Z,16.50
2019-03-30T13:06:22.434Z,21.27
2019-03-30T13:08:50.751Z,16.85
2019-03-30T13:11:19.151Z,22.48
2019-03-30T13:13:47.719Z,18.15
2019-03-30T13:16:16.022Z,16.50
2019-03-30T13:18:44.464Z,20.12
2019-03-30T13:21:13.001Z,23.15
2019-03-30T13:23:41.470Z,29.72
2019-03-30T13:26:09.669Z,24.47
2019-03-30T13:28:38.193Z,26.93
2019-03-30T13:31:06.464Z,28.70
2019-03-30T13:33:34.752Z,28.57
2019-03-30T13:36:04.723Z,24.30
2019-03-30T13:38:32.991Z,28.40
2019-03-30T13:41:01.184Z,29.00
2019-03-30T13:43:29.764Z,34.83
2019-03-30T13:45:58.193Z,32.13
2019-03-30T13:48:26.799Z,31.05
2019-03-30T13:50:55.221Z,38.30
2019-03-30T13:53:23.775Z,39.92
2019-03-30T13:55:52.151Z,37.65
2019-03-30T13:58:20.576Z,34.78
2019-03-30T14:00:48.913Z,33.30
2019-03-30T14:03:17.291Z,31.57
2019-03-30T14:05:45.732Z,34.45
2019-03-30T14:08:14.051Z,36.23
2019-03-30T14:10:42.504Z,32.08
2019-03-30T14:13:10.970Z,32.50
2019-03-30T14:15:39.327Z,24.80
2019-03-30T14:18:07.712Z,34.15
2019-03-30T14:20:36.038Z,34.98
2019-03-30T14:23:04.591Z,36.60
2019-03-30T14:25:33.025Z,30.00
2019-03-30T14:28:02.502Z,39.18
2019-03-30T14:30:30.973Z,41.28
2019-03-30T14:32:59.363Z,37.23
2019-03-30T14:35:27.746Z,38.08
2019-03-30T14:37:56.211Z,37.17
2019-03-30T14:40:24.605Z,37.98
2019-03-30T14:42:53.077Z,36.33
2019-03-30T14:45:21.505Z,37.00
2019-03-30T14:47:49.701Z,31.40
2019-03-30T14:50:18.138Z,39.42
2019-03-30T14:52:46.481Z,32.67
2019-03-30T14:55:14.843Z,35.13
2019-03-30T14:57:43.083Z,37.65
2019-03-30T15:00:11.661Z,35.80
2019-03-30T15:02:40.319Z,37.15
2019-03-30T15:05:09.073Z,35.85
2019-03-30T15:07:37.385Z,33.18
2019-03-30T15:10:08.331Z,31.68
2019-03-30T15:12:37.212Z,44.20
2019-03-30T15:15:07.112Z,32.90
2019-03-30T15:17:35.692Z,33.15
2019-03-30T15:20:05.721Z,31.25
2019-03-30T15:22:35.689Z,37.23
2019-03-30T15:25:05.446Z,32.23
2019-03-30T15:27:33.709Z,31.77
2019-03-30T15:30:02.226Z,40.60
2019-03-30T15:32:31.792Z,29.18
2019-03-30T15:35:00.155Z,31.62
2019-03-30T15:37:28.565Z,31.70
2019-03-30T15:39:57.415Z,35.90
2019-03-30T15:42:25.796Z,35.38
2019-03-30T15:44:54.140Z,36.38
2019-03-30T15:47:22.613Z,31.07
2019-03-30T15:49:51.100Z,32.48
2019-03-30T15:52:20.564Z,38.35
2019-03-30T15:54:49.029Z,36.42
2019-03-30T15:57:17.491Z,26.33
2019-03-30T15:59:46.159Z,35.78
2019-03-30T16:02:14.850Z,35.98
2019-03-30T16:04:43.304Z,33.73
2019-03-30T16:07:11.524Z,32.90
2019-03-30T16:09:39.952Z,32.60
2019-03-30T16:12:08.286Z,33.53
2019-03-30T16:14:36.712Z,27.10
2019-03-30T16:17:05.065Z,33.98
2019-03-30T16:19:33.592Z,41.18
2019-03-30T16:22:01.992Z,29.92
2019-03-30T16:24:30.377Z,32.08
2019-03-30T16:26:58.740Z,42.03
2019-03-30T16:29:27.211Z,33.60
2019-03-30T16:31:55.680Z,32.67
2019-03-30T16:34:24.111Z,39.57
2019-03-30T16:36:52.592Z,27.83
2019-03-30T16:39:20.949Z,36.07
2019-03-30T16:41:49.404Z,19.60
2019-03-30T16:44:17.943Z,39.87
2019-03-30T16:46:46.368Z,45.70
2019-03-30T16:49:14.763Z,43.27
2019-03-30T16:51:43.192Z,44.77
2019-03-30T16:54:11.624Z,44.90
2019-03-30T16:56:39.945Z,46.80
2019-03-30T16:59:08.412Z,45.37
2019-03-30T17:01:36.703Z,47.50
2019-03-30T17:04:05.075Z,50.97
2019-03-30T17:06:33.471Z,52.10
2019-03-30T17:09:01.791Z,50.67
2019-03-30T17:11:31.705Z,57.70
2019-03-30T17:14:00.149Z,54.10
2019-03-30T17:16:28.511Z,56.20
2019-03-30T17:18:56.891Z,47.73
2019-03-30T17:21:26.614Z,54.57
2019-03-30T17:23:56.043Z,61.43
2019-03-30T17:26:24.453Z,65.67
2019-03-30T17:28:52.851Z,67.97
2019-03-30T17:31:21.324Z,53.93
2019-03-30T17:33:49.678Z,64.37
2019-03-30T17:36:18.056Z,58.70
2019-03-30T17:38:46.571Z,54.13
2019-03-30T17:41:14.907Z,53.13
2019-03-30T17:43:43.138Z,51.40
2019-03-30T17:46:11.369Z,51.57
2019-03-30T17:48:39.642Z,57.00
2019-03-30T17:51:08.228Z,69.63
2019-03-30T17:53:39.331Z,57.37
2019-03-30T17:56:06.503Z,56.93
2019-03-30T17:58:34.831Z,60.43
2019-03-30T18:01:03.194Z,68.00
2019-03-30T18:03:31.548Z,66.73
2019-03-30T18:06:00.951Z,60.57
2019-03-30T18:08:30.564Z,54.20
2019-03-30T18:10:58.892Z,71.33
2019-03-30T18:13:29.211Z,72.10
2019-03-30T18:15:57.703Z,64.00
2019-03-30T18:18:26.001Z,68.67
2019-03-30T18:20:55.353Z,72.30
2019-03-30T18:23:24.855Z,91.10
2019-03-30T18:25:53.232Z,77.33
2019-03-30T18:28:27.317Z,91.87
2019-03-30T18:30:51.825Z,94.07
2019-03-30T18:33:20.063Z,93.70
2019-03-30T18:35:48.991Z,75.87
2019-03-30T18:38:17.610Z,92.67
2019-03-30T18:40:46.013Z,89.43
2019-03-30T18:43:14.455Z,87.90
2019-03-30T18:45:42.940Z,82.53
2019-03-30T18:48:12.717Z,89.03
2019-03-30T18:50:41.427Z,79.10
2019-03-30T18:53:12.328Z,82.13
2019-03-30T18:55:41.226Z,81.47
2019-03-30T18:58:11.195Z,119.60
2019-03-30T19:00:39.593Z,110.90
2019-03-30T19:03:12.638Z,95.70
2019-03-30T19:05:42.170Z,86.07
2019-03-30T19:08:13.428Z,58.67
2019-03-30T19:10:41.833Z,69.87
2019-03-30T19:13:10.359Z,66.53
2019-03-30T19:15:38.766Z,52.60
2019-03-30T19:18:07.233Z,66.07
2019-03-30T19:20:36.601Z,87.07
2019-03-30T19:23:04.850Z,79.80
2019-03-30T19:25:33.391Z,69.40
2019-03-30T19:28:01.646Z,75.57
2019-03-30T19:30:29.851Z,71.87
2019-03-30T19:33:12.409Z,71.37
2019-03-30T19:35:55.677Z,69.37
2019-03-30T19:38:44.016Z,71.30
2019-03-30T19:41:48.000Z,73.97
2019-03-30T19:44:36.828Z,75.33
2019-03-30T19:47:38.615Z,72.27
2019-03-30T19:50:43.215Z,65.90
2019-03-30T19:53:49.456Z,76.07
2019-03-30T19:56:34.494Z,76.17
2019-03-30T19:59:34.980Z,69.13
2019-03-30T20:02:42.856Z,78.10
2019-03-30T20:08:58.269Z,82.93
2019-03-30T20:12:05.754Z,77.70
2019-03-30T20:14:57.792Z,70.53
2019-03-30T20:17:37.244Z,76.07
2019-03-30T20:20:22.911Z,86.97
2019-03-30T20:23:19.196Z,85.43
2019-03-30T20:25:54.376Z,87.93
2019-03-30T20:28:23.351Z,109.07
2019-03-30T20:30:51.631Z,113.47
2019-03-30T20:33:20.295Z,82.90
2019-03-30T20:35:48.723Z,75.23
2019-03-30T20:38:17.207Z,69.93
2019-03-30T20:40:45.801Z,86.87
2019-03-30T20:43:14.173Z,85.17
2019-03-30T20:45:44.510Z,72.50
2019-03-30T20:48:13.450Z,93.83
2019-03-30T20:50:43.004Z,85.13
2019-03-30T20:53:11.889Z,83.70
2019-03-30T20:55:40.165Z,85.27
2019-03-30T20:58:08.834Z,93.27
2019-03-30T21:00:37.271Z,92.03
2019-03-30T21:03:05.713Z,97.17
2019-03-30T21:05:33.949Z,89.43
2019-03-30T21:08:02.274Z,90.10
2019-03-30T21:10:30.751Z,88.17
2019-03-30T21:12:59.173Z,90.80
2019-03-30T21:15:27.509Z,84.07
2019-03-30T21:17:57.071Z,85.67
2019-03-30T21:20:26.684Z,95.63
2019-03-30T21:22:54.899Z,91.30
2019-03-30T21:25:23.399Z,73.63
2019-03-30T21:27:51.736Z,85.87
2019-03-30T21:30:20.091Z,82.80
2019-03-30T21:32:48.452Z,83.33
2019-03-30T21:35:18.181Z,74.03
2019-03-30T21:37:48.594Z,74.50
2019-03-30T21:40:17.042Z,81.17
2019-03-30T21:42:45.539Z,83.97
2019-03-30T21:45:13.909Z,106.27
2019-03-30T21:47:42.402Z,104.27
2019-03-30T21:50:10.780Z,114.87
2019-03-30T21:52:38.991Z,118.03
2019-03-30T21:55:07.798Z,120.40
2019-03-30T21:57:36.185Z,116.93
2019-03-30T22:00:10.389Z,94.67
2019-03-30T22:02:37.831Z,91.97
2019-03-30T22:05:06.479Z,119.73
2019-03-30T22:07:34.943Z,105.43
2019-03-30T22:10:04.788Z,118.40
2019-03-30T22:12:33.137Z,150.33
2019-03-30T22:15:01.516Z,141.77
2019-03-30T22:17:29.807Z,153.90
2019-03-30T22:19:58.142Z,138.53
2019-03-30T22:22:26.979Z,149.53
2019-03-30T22:24:55.127Z,153.90
2019-03-30T22:27:23.519Z,153.33
2019-03-30T22:29:51.966Z,142.20
2019-03-30T22:32:20.164Z,137.13
2019-03-30T22:34:48.559Z,129.40
2019-03-30T22:37:16.878Z,130.40
2019-03-30T22:39:46.459Z,121.57
2019-03-30T22:42:16.079Z,132.57
2019-03-30T22:44:44.464Z,118.23
2019-03-30T22:47:12.786Z,92.20
2019-03-30T22:49:41.185Z,113.83
2019-03-30T22:52:09.362Z,99.33
2019-03-30T22:54:37.551Z,103.60
2019-03-30T22:57:05.830Z,125.73
2019-03-30T22:59:34.018Z,115.30
2019-03-30T23:02:03.920Z,107.87
2019-03-30T23:04:32.286Z,111.97
2019-03-30T23:07:00.573Z,109.57
2019-03-30T23:09:28.851Z,112.77
2019-03-30T23:11:57.115Z,122.00
2019-03-30T23:14:25.337Z,118.10
2019-03-30T23:16:53.742Z,103.77
2019-03-30T23:19:22.133Z,98.77
2019-03-30T23:21:50.543Z,105.63
2019-03-30T23:24:19.931Z,117.40
2019-03-30T23:26:48.683Z,98.67
2019-03-30T23:29:17.106Z,92.20
2019-03-30T23:31:45.599Z,93.87
2019-03-30T23:34:14.862Z,111.47
2019-03-30T23:36:43.365Z,103.83
2019-03-30T23:39:11.740Z,109.70
2019-03-30T23:41:44.161Z,105.27
2019-03-30T23:44:14.004Z,103.83
2019-03-30T23:46:42.453Z,118.40
2019-03-30T23:49:11.610Z,120.30
2019-03-30T23:51:39.999Z,100.27
2019-03-30T23:54:09.831Z,100.83
2019-03-30T23:56:38.254Z,86.97
2019-03-30T23:59:06.723Z,91.90
